createdAt,value
2022-11-25T00:01:31.208Z,100031.75
2022-11-25T00:03:59.435Z,100017.13
2022-11-25T00:06:36.394Z,100017.25
2022-11-25T00:09:10.978Z,100020.47
2022-11-25T00:11:40.828Z,100013.53
2022-11-25T00:14:14.491Z,100008.84
2022-11-25T00:16:45.163Z,100005.38
2022-11-25T00:19:15.260Z,100002.72
2022-11-25T00:21:42.672Z,99999.81
2022-11-25T00:24:11.081Z,99994.81
2022-11-25T00:26:38.010Z,100003.84
2022-11-25T00:29:07.940Z,100000.41
2022-11-25T00:31:37.754Z,100005.19
2022-11-25T00:34:05.104Z,100001.34
2022-11-25T00:36:35.429Z,99989.16
2022-11-25T00:39:11.404Z,99993.53
2022-11-25T00:41:57.080Z,99991.75
2022-11-25T00:44:37.178Z,99980.72
2022-11-25T00:47:17.337Z,99994.09
2022-11-25T00:49:47.791Z,99993.22
2022-11-25T00:52:20.849Z,99985.78
2022-11-25T00:54:48.739Z,99992.59
2022-11-25T00:57:18.183Z,99994.44
2022-11-25T00:59:45.194Z,99997.53
2022-11-25T01:02:14.110Z,99995.38
2022-11-25T01:04:41.219Z,99998.13
2022-11-25T01:07:08.565Z,100001.72
2022-11-25T01:09:35.593Z,100007.94
2022-11-25T01:12:02.636Z,100009.72
2022-11-25T01:14:29.731Z,100026.53
2022-11-25T01:16:56.702Z,100021.38
2022-11-25T01:19:23.799Z,100027.56
2022-11-25T01:21:50.763Z,100026.69
2022-11-25T01:24:18.438Z,100034.84
2022-11-25T01:26:45.644Z,100029.81
2022-11-25T01:29:18.666Z,100032.41
2022-11-25T01:31:47.163Z,100028.78
2022-11-25T01:34:21.835Z,100030.50
2022-11-25T01:36:49.234Z,100026.16
2022-11-25T01:39:31.720Z,100027.25
2022-11-25T01:42:01.096Z,100027.06
2022-11-25T01:44:31.511Z,100028.97
2022-11-25T01:47:23.516Z,100029.91
2022-11-25T01:50:03.583Z,100030.84
2022-11-25T01:52:41.651Z,100038.84
2022-11-25T01:55:13.218Z,100035.34
2022-11-25T01:57:55.688Z,100032.69
2022-11-25T02:00:22.899Z,100047.50
2022-11-25T02:02:53.335Z,100046.56
2022-11-25T02:05:32.400Z,100044.00
2022-11-25T02:08:01.059Z,100050.31
2022-11-25T02:10:31.140Z,100042.34
2022-11-25T02:12:58.860Z,100048.50
2022-11-25T02:15:26.853Z,100052.88
2022-11-25T02:17:53.931Z,100037.22
2022-11-25T02:20:23.030Z,100039.09
2022-11-25T02:23:14.970Z,100032.88
2022-11-25T02:25:43.843Z,100034.59
2022-11-25T02:28:23.036Z,100036.38
2022-11-25T02:30:50.186Z,100038.09
2022-11-25T02:33:17.600Z,100044.25
2022-11-25T02:35:49.173Z,100042.53
2022-11-25T02:38:34.864Z,100036.50
2022-11-25T02:41:25.532Z,100037.22
2022-11-25T02:43:52.927Z,100034.56
2022-11-25T02:46:24.526Z,100028.41
2022-11-25T02:49:08.832Z,100029.22
2022-11-25T02:51:37.899Z,100028.25
2022-11-25T02:54:05.066Z,100032.84
2022-11-25T02:56:36.299Z,100026.78
2022-11-25T02:59:04.390Z,100030.38
2022-11-25T03:01:31.892Z,100033.88
2022-11-25T03:04:00.053Z,100038.41
2022-11-25T03:06:27.888Z,100047.25
2022-11-25T03:08:54.962Z,100045.56
2022-11-25T03:11:41.876Z,100056.16
2022-11-25T03:14:08.836Z,100055.31
2022-11-25T03:16:35.977Z,100055.47
2022-11-25T03:19:03.332Z,100050.25
2022-11-25T03:21:30.359Z,100050.41
2022-11-25T03:23:57.432Z,100047.91
2022-11-25T03:26:26.051Z,100039.16
2022-11-25T03:28:53.123Z,100037.53
2022-11-25T03:31:20.334Z,100046.22
2022-11-25T03:33:47.332Z,100040.16
2022-11-25T03:36:14.266Z,100035.88
2022-11-25T03:38:41.324Z,100040.25
2022-11-25T03:41:08.280Z,100034.25
2022-11-25T03:43:35.743Z,100037.75
2022-11-25T03:46:02.941Z,100056.22
2022-11-25T03:48:30.000Z,100047.53
2022-11-25T03:50:57.052Z,100039.81
2022-11-25T03:53:23.967Z,100054.59
2022-11-25T03:55:51.182Z,100056.53
2022-11-25T03:58:18.194Z,100064.47
2022-11-25T04:00:45.196Z,100062.88
2022-11-25T04:03:12.166Z,100072.59
2022-11-25T04:05:39.130Z,100077.06
2022-11-25T04:08:06.990Z,100074.47
2022-11-25T04:10:34.038Z,100076.31
2022-11-25T04:13:00.992Z,100077.16
2022-11-25T04:15:28.015Z,100085.91
2022-11-25T04:17:54.969Z,100085.06
2022-11-25T04:20:22.057Z,100086.88
2022-11-25T04:22:48.992Z,100081.69
2022-11-25T04:25:16.330Z,100076.53
2022-11-25T04:27:43.259Z,100073.84
2022-11-25T04:30:10.978Z,100065.97
2022-11-25T04:32:39.029Z,100051.97
2022-11-25T04:35:06.524Z,100044.81
2022-11-25T04:37:33.584Z,100043.59
2022-11-25T04:40:00.559Z,100050.25
2022-11-25T04:42:33.424Z,100065.19
2022-11-25T04:47:50.680Z,100063.53
2022-11-25T04:50:21.836Z,100064.94
2022-11-25T04:52:49.089Z,100068.22
2022-11-25T04:55:16.615Z,100075.84
2022-11-25T04:57:43.568Z,100073.97
2022-11-25T05:00:11.989Z,100074.69
2022-11-25T05:06:13.093Z,100081.88
2022-11-25T05:08:40.077Z,100081.13
2022-11-25T05:11:07.130Z,100082.97
2022-11-25T05:13:34.139Z,100089.91
2022-11-25T05:16:01.127Z,100105.94
2022-11-25T05:18:28.184Z,100107.00
2022-11-25T05:20:55.226Z,100121.00
2022-11-25T05:23:22.167Z,100127.94
2022-11-25T05:25:49.118Z,100122.72
2022-11-25T05:28:16.088Z,100130.75
2022-11-25T05:30:45.312Z,100136.94
2022-11-25T05:33:12.364Z,100141.38
2022-11-25T05:35:39.361Z,100143.94
2022-11-25T05:38:06.300Z,100148.22
2022-11-25T05:40:33.194Z,100145.53
2022-11-25T05:43:02.062Z,100149.88
2022-11-25T05:45:29.066Z,100154.28
2022-11-25T05:47:56.090Z,100157.88
2022-11-25T05:50:23.139Z,100157.81
2022-11-25T05:52:50.107Z,100173.59
2022-11-25T05:55:17.292Z,100168.47
2022-11-25T05:57:44.207Z,100172.88
2022-11-25T06:00:12.092Z,100184.31
2022-11-25T06:02:39.200Z,100193.19
2022-11-25T06:05:06.620Z,100193.38
2022-11-25T06:07:33.747Z,100194.41
2022-11-25T06:10:03.316Z,100194.47
2022-11-25T06:12:30.612Z,100192.84
2022-11-25T06:14:57.661Z,100198.13
2022-11-25T06:17:24.640Z,100213.06
2022-11-25T06:19:51.713Z,100221.84
2022-11-25T06:22:18.736Z,100229.78
2022-11-25T06:24:52.158Z,100233.34
2022-11-25T06:27:23.599Z,100243.06
2022-11-25T06:29:50.471Z,100251.06
2022-11-25T06:32:17.376Z,100240.59
2022-11-25T06:34:44.932Z,100243.31
2022-11-25T06:37:11.915Z,100245.06
2022-11-25T06:39:38.885Z,100250.28
2022-11-25T06:42:05.951Z,100257.34
2022-11-25T06:44:33.011Z,100257.44
2022-11-25T06:47:00.093Z,100263.56
2022-11-25T06:49:28.666Z,100281.03
2022-11-25T06:51:55.926Z,100284.59
2022-11-25T06:54:22.933Z,100285.47
2022-11-25T06:56:53.695Z,100284.63
2022-11-25T06:59:21.860Z,100277.63
2022-11-25T07:01:48.991Z,100284.75
2022-11-25T07:04:16.125Z,100297.78
2022-11-25T07:06:43.187Z,100290.81
2022-11-25T07:09:10.223Z,100290.75
2022-11-25T07:11:40.351Z,100291.66
2022-11-25T07:14:12.338Z,100302.22
2022-11-25T07:16:44.014Z,100298.81
2022-11-25T07:19:14.464Z,100317.19
2022-11-25T07:21:44.573Z,100323.44
2022-11-25T07:24:14.745Z,100322.69
2022-11-25T07:26:44.012Z,100330.72
2022-11-25T07:29:44.293Z,100325.56
2022-11-25T07:32:07.294Z,100328.19
2022-11-25T07:34:37.390Z,100335.31
2022-11-25T07:37:04.393Z,100336.19
2022-11-25T07:39:31.462Z,100342.41
2022-11-25T07:41:58.463Z,100345.97
2022-11-25T07:44:25.442Z,100346.06
2022-11-25T07:46:52.778Z,100357.47
2022-11-25T07:49:25.491Z,100367.28
2022-11-25T07:51:55.924Z,100369.25
2022-11-25T07:54:24.293Z,100380.59
2022-11-25T07:56:51.891Z,100381.69
2022-11-25T07:59:22.118Z,100384.41
2022-11-25T08:01:54.391Z,100397.50
2022-11-25T08:04:22.475Z,100411.59
2022-11-25T08:06:51.924Z,100410.72
2022-11-25T08:09:23.653Z,100412.59
2022-11-25T08:11:51.037Z,100419.69
2022-11-25T08:14:18.571Z,100421.53
2022-11-25T08:16:46.005Z,100433.88
2022-11-25T08:19:16.408Z,100415.50
2022-11-25T08:21:43.567Z,100418.06
2022-11-25T08:24:20.410Z,100427.13
2022-11-25T08:26:48.490Z,100439.47
2022-11-25T08:29:18.746Z,100443.78
2022-11-25T08:31:46.614Z,100441.22
2022-11-25T08:34:20.560Z,100443.88
2022-11-25T08:36:48.792Z,100452.66
2022-11-25T08:39:44.248Z,100448.41
2022-11-25T08:42:06.393Z,100449.56
2022-11-25T08:44:33.602Z,100460.13
2022-11-25T08:47:01.009Z,100458.34
2022-11-25T08:49:32.731Z,100461.91
2022-11-25T08:52:01.888Z,100455.00
2022-11-25T08:54:28.908Z,100458.56
2022-11-25T08:56:56.039Z,100464.88
2022-11-25T08:59:23.498Z,100471.16
2022-11-25T09:01:50.743Z,100481.00
2022-11-25T09:04:18.175Z,100485.72
2022-11-25T09:06:45.348Z,100498.19
2022-11-25T09:09:12.536Z,100494.00
2022-11-25T09:11:39.721Z,100508.44
2022-11-25T09:14:06.970Z,100511.44
2022-11-25T09:16:34.248Z,100517.75
2022-11-25T09:19:01.544Z,100517.75
2022-11-25T09:21:28.799Z,100527.75
2022-11-25T09:23:56.280Z,100527.19
2022-11-25T09:26:35.899Z,100538.47
2022-11-25T09:29:04.061Z,100541.38
2022-11-25T09:31:31.454Z,100547.63
2022-11-25T09:33:58.767Z,100554.81
2022-11-25T09:36:25.752Z,100555.59
2022-11-25T09:38:53.112Z,100568.91
2022-11-25T09:42:11.172Z,100560.19
2022-11-25T09:45:24.107Z,100563.69
2022-11-25T09:48:26.104Z,100571.94
2022-11-25T09:51:18.694Z,100579.91
2022-11-25T09:53:59.651Z,100577.31
2022-11-25T09:56:41.957Z,100577.22
2022-11-25T09:59:24.943Z,100575.72
2022-11-25T10:02:03.375Z,100584.56
2022-11-25T10:05:10.015Z,100586.50
2022-11-25T10:07:43.269Z,100596.56
2022-11-25T10:10:31.409Z,100605.53
2022-11-25T10:12:59.544Z,100603.00
2022-11-25T10:15:41.058Z,100600.22
2022-11-25T10:18:30.141Z,100602.06
2022-11-25T10:20:57.159Z,100609.22
2022-11-25T10:23:36.525Z,100608.38
2022-11-25T10:26:14.274Z,100609.38
2022-11-25T10:29:10.166Z,100614.69
2022-11-25T10:31:38.495Z,100620.19
2022-11-25T10:34:36.857Z,100619.50
2022-11-25T10:37:13.213Z,100604.69
2022-11-25T10:39:40.531Z,100615.41
2022-11-25T10:42:25.917Z,100624.38
2022-11-25T10:44:54.986Z,100625.31
2022-11-25T10:47:35.984Z,100640.50
2022-11-25T10:50:14.955Z,100638.94
2022-11-25T10:53:04.088Z,100636.53
2022-11-25T10:55:33.594Z,100648.13
2022-11-25T10:58:31.159Z,100654.59
2022-11-25T11:01:22.502Z,100656.31
2022-11-25T11:04:06.581Z,100660.00
2022-11-25T11:06:38.550Z,100666.13
2022-11-25T11:09:06.091Z,100673.19
2022-11-25T11:11:33.591Z,100677.69
2022-11-25T11:14:14.962Z,100670.84
2022-11-25T11:16:45.644Z,100678.06
2022-11-25T11:19:26.604Z,100684.34
2022-11-25T11:21:56.002Z,100681.59
2022-11-25T11:24:38.068Z,100672.78
2022-11-25T11:27:09.716Z,100678.13
2022-11-25T11:29:36.933Z,100664.91
2022-11-25T11:32:25.119Z,100680.97
2022-11-25T11:35:06.277Z,100681.25
2022-11-25T11:37:54.924Z,100682.16
2022-11-25T11:40:32.369Z,100684.03
2022-11-25T11:43:05.816Z,100694.69
2022-11-25T11:45:56.848Z,100706.69
2022-11-25T11:48:51.545Z,100706.69
2022-11-25T11:51:57.590Z,100707.50
2022-11-25T11:54:43.845Z,100707.44
2022-11-25T11:57:46.319Z,100701.97
2022-11-25T12:00:16.683Z,100710.00
2022-11-25T12:03:05.678Z,100702.94
2022-11-25T12:05:36.182Z,100709.19
2022-11-25T12:08:11.682Z,100714.50
2022-11-25T12:10:46.327Z,100716.47
2022-11-25T12:13:36.032Z,100714.13
2022-11-25T12:16:11.852Z,100712.28
2022-11-25T12:18:53.360Z,100713.22
2022-11-25T12:21:59.165Z,100707.94
2022-11-25T12:24:39.981Z,100708.84
2022-11-25T12:27:17.555Z,100722.28
2022-11-25T12:29:59.263Z,100724.25
2022-11-25T12:32:32.470Z,100718.19
2022-11-25T12:35:17.209Z,100741.56
2022-11-25T12:38:31.106Z,100730.19
2022-11-25T12:41:06.529Z,100728.53
2022-11-25T12:43:56.864Z,100737.44
2022-11-25T12:46:47.776Z,100732.16
2022-11-25T12:49:35.369Z,100726.75
2022-11-25T12:52:30.180Z,100736.66
2022-11-25T12:55:22.653Z,100758.44
2022-11-25T12:58:33.763Z,100752.25
2022-11-25T13:01:43.322Z,100757.75
2022-11-25T13:04:48.703Z,100737.31
2022-11-25T13:07:26.932Z,100733.59
2022-11-25T13:10:38.909Z,100742.41
2022-11-25T13:13:55.241Z,100738.88
2022-11-25T13:16:23.516Z,100753.00
2022-11-25T13:18:51.554Z,100747.69
2022-11-25T13:21:19.875Z,100744.13
2022-11-25T13:23:52.167Z,100759.19
2022-11-25T13:26:36.750Z,100758.28
2022-11-25T13:29:12.436Z,100763.63
2022-11-25T13:32:05.701Z,100760.00
2022-11-25T13:34:36.598Z,100768.03
2022-11-25T13:37:41.749Z,100771.56
2022-11-25T13:40:30.051Z,100763.50
2022-11-25T13:43:00.531Z,100743.88
2022-11-25T13:45:39.803Z,100743.91
2022-11-25T13:48:17.308Z,100754.72
2022-11-25T13:51:09.965Z,100754.72
2022-11-25T13:53:35.087Z,100754.72
2022-11-25T13:56:20.922Z,100752.91
2022-11-25T13:59:13.817Z,100749.50
2022-11-25T14:01:53.883Z,100755.78
2022-11-25T14:05:06.162Z,100772.06
2022-11-25T14:07:40.849Z,100765.41
2022-11-25T14:10:20.317Z,100752.84
2022-11-25T14:12:56.060Z,100766.38
2022-11-25T14:16:12.584Z,100771.69
2022-11-25T14:19:22.204Z,100765.84
2022-11-25T14:21:58.881Z,100741.25
2022-11-25T14:24:38.921Z,100725.22
2022-11-25T14:27:14.428Z,100718.09
2022-11-25T14:30:01.106Z,100729.69
2022-11-25T14:32:44.968Z,100723.63
2022-11-25T14:35:19.867Z,100698.22
2022-11-25T14:38:37.761Z,100718.81
2022-11-25T14:41:13.927Z,100701.06
2022-11-25T14:43:47.252Z,100677.22
2022-11-25T14:46:20.678Z,100665.47
2022-11-25T14:48:59.128Z,100671.66
2022-11-25T14:51:37.300Z,100668.88
2022-11-25T14:54:10.509Z,100674.09
2022-11-25T14:56:39.243Z,100682.88
2022-11-25T14:59:10.084Z,100658.75
2022-11-25T15:01:39.382Z,100672.72
2022-11-25T15:04:24.872Z,100703.41
2022-11-25T15:10:41.303Z,100674.72
2022-11-25T15:13:29.253Z,100694.22
2022-11-25T15:16:05.209Z,100694.06
2022-11-25T15:18:35.020Z,100693.81
2022-11-25T15:21:03.056Z,100688.34
2022-11-25T15:23:36.750Z,100670.00
2022-11-25T15:26:05.409Z,100680.53
2022-11-25T15:28:37.936Z,100703.75
2022-11-25T15:31:18.572Z,100711.75
2022-11-25T15:33:47.488Z,100695.22
2022-11-25T15:36:14.578Z,100708.28
2022-11-25T15:38:46.424Z,100695.69
2022-11-25T15:41:34.409Z,100736.75
2022-11-25T15:44:05.173Z,100734.81
2022-11-25T15:46:35.692Z,100716.81
2022-11-25T15:49:06.667Z,100729.38
2022-11-25T15:51:50.939Z,100696.72
2022-11-25T15:54:23.512Z,100714.47
2022-11-25T15:56:56.129Z,100730.94
2022-11-25T15:59:56.243Z,100731.81
2022-11-25T16:02:43.321Z,100741.75
2022-11-25T16:05:13.325Z,100737.16
2022-11-25T16:07:50.721Z,100732.41
2022-11-25T16:10:44.984Z,100734.97
2022-11-25T16:13:23.966Z,100734.84
2022-11-25T16:15:57.865Z,100745.38
2022-11-25T16:18:40.646Z,100746.91
2022-11-25T16:21:25.047Z,100744.84
2022-11-25T16:24:12.329Z,100726.31
2022-11-25T16:27:00.910Z,100739.34
2022-11-25T16:29:38.094Z,100741.84
2022-11-25T16:32:32.286Z,100745.97
2022-11-25T16:35:15.213Z,100753.72
2022-11-25T16:37:47.173Z,100736.44
2022-11-25T16:40:18.157Z,100763.03
2022-11-25T16:42:50.166Z,100747.53
2022-11-25T16:45:26.447Z,100757.88
2022-11-25T16:47:54.043Z,100766.81
2022-11-25T16:50:22.041Z,100779.06
2022-11-25T16:52:50.224Z,100779.06
2022-11-25T16:55:18.811Z,100794.09
2022-11-25T16:57:46.053Z,100806.19
2022-11-25T17:00:34.864Z,100816.94
2022-11-25T17:03:02.075Z,100822.09
2022-11-25T17:05:30.980Z,100828.31
2022-11-25T17:07:58.035Z,100829.09
2022-11-25T17:10:27.184Z,100832.72
2022-11-25T17:12:55.747Z,100814.59
2022-11-25T17:15:35.331Z,100832.25
2022-11-25T17:18:05.989Z,100816.94
2022-11-25T17:20:37.285Z,100821.16
2022-11-25T17:23:10.741Z,100830.78
2022-11-25T17:25:37.955Z,100835.88
2022-11-25T17:28:05.199Z,100836.78
2022-11-25T17:30:32.512Z,100842.97
2022-11-25T17:33:06.234Z,100840.09
2022-11-25T17:35:33.250Z,100848.97
2022-11-25T17:38:02.461Z,100856.00
2022-11-25T17:40:29.527Z,100855.03
2022-11-25T17:42:57.157Z,100883.22
2022-11-25T17:45:26.338Z,100873.50
2022-11-25T17:47:53.289Z,100880.53
2022-11-25T17:50:25.389Z,100877.75
2022-11-25T17:52:53.138Z,100900.22
2022-11-25T17:55:22.071Z,100912.38
2022-11-25T17:57:52.985Z,100911.91
2022-11-25T18:00:22.544Z,100904.44
2022-11-25T18:02:50.082Z,100881.13
2022-11-25T18:05:24.337Z,100895.63
2022-11-25T18:07:52.486Z,100906.47
2022-11-25T18:10:26.890Z,100949.41
2022-11-25T18:12:56.773Z,100934.59
2022-11-25T18:15:29.644Z,100925.88
2022-11-25T18:18:24.535Z,100940.34
2022-11-25T18:20:56.306Z,100944.09
2022-11-25T18:23:23.739Z,100958.75
2022-11-25T18:25:51.898Z,100934.63
2022-11-25T18:28:26.022Z,100924.69
2022-11-25T18:30:55.860Z,100930.13
2022-11-25T18:33:23.192Z,100925.53
2022-11-25T18:35:50.137Z,100911.09
2022-11-25T18:38:17.221Z,100917.09
2022-11-25T18:40:53.223Z,100919.78
2022-11-25T18:43:24.972Z,100945.53
2022-11-25T18:45:53.817Z,100943.81
2022-11-25T18:48:24.246Z,100954.72
2022-11-25T18:50:55.079Z,100955.34
2022-11-25T18:53:25.426Z,100966.22
2022-11-25T18:55:52.626Z,100958.94
2022-11-25T18:58:24.522Z,100950.97
2022-11-25T19:00:53.173Z,100958.00
2022-11-25T19:03:25.640Z,100956.97
2022-11-25T19:05:58.598Z,100960.53
2022-11-25T19:08:25.976Z,100959.59
2022-11-25T19:10:53.093Z,100974.19
2022-11-25T19:13:32.740Z,100964.91
2022-11-25T19:16:08.377Z,100990.38
2022-11-25T19:18:35.861Z,100978.69
2022-11-25T19:21:03.688Z,100978.66
2022-11-25T19:23:30.756Z,100979.22
2022-11-25T19:26:11.980Z,100991.81
2022-11-25T19:28:39.549Z,100998.19
2022-11-25T19:31:06.915Z,100997.41
2022-11-25T19:33:46.605Z,100999.19
2022-11-25T19:36:26.600Z,100992.75
2022-11-25T19:38:54.581Z,101000.66
2022-11-25T19:41:21.740Z,101002.59
2022-11-25T19:43:48.828Z,101024.38
2022-11-25T19:46:46.388Z,101000.53
2022-11-25T19:49:20.112Z,101005.56
2022-11-25T19:51:48.782Z,101011.31
2022-11-25T19:54:18.580Z,100996.28
2022-11-25T19:56:46.112Z,101000.69
2022-11-25T19:59:30.929Z,101002.81
2022-11-25T20:01:58.374Z,101029.97
2022-11-25T20:04:25.411Z,101020.66
2022-11-25T20:06:52.555Z,101034.00
2022-11-25T20:09:19.580Z,101053.41
2022-11-25T20:11:47.500Z,101056.91
2022-11-25T20:14:14.544Z,101050.66
2022-11-25T20:16:42.373Z,101056.72
2022-11-25T20:19:17.844Z,101062.19
2022-11-25T20:21:46.610Z,101066.47
2022-11-25T20:24:18.673Z,101067.31
2022-11-25T20:26:48.711Z,101084.31
2022-11-25T20:29:20.893Z,101074.75
2022-11-25T20:31:49.725Z,101079.81
2022-11-25T20:34:16.816Z,101078.75
2022-11-25T20:36:45.075Z,101088.53
2022-11-25T20:39:21.448Z,101080.50
2022-11-25T20:41:52.891Z,101079.41
2022-11-25T20:44:21.060Z,101092.88
2022-11-25T20:46:48.420Z,101095.59
2022-11-25T20:49:27.712Z,101115.41
2022-11-25T20:51:57.755Z,101110.22
2022-11-25T20:54:24.890Z,101105.59
2022-11-25T20:56:52.059Z,101112.00
2022-11-25T20:59:23.534Z,101110.22
2022-11-25T21:01:52.796Z,101110.84
2022-11-25T21:04:20.036Z,101109.88
2022-11-25T21:06:47.481Z,101110.72
2022-11-25T21:09:21.768Z,101109.69
2022-11-25T21:11:49.227Z,101094.28
2022-11-25T21:14:19.587Z,101105.75
2022-11-25T21:16:47.739Z,101099.34
2022-11-25T21:19:15.197Z,101109.94
2022-11-25T21:21:45.705Z,101107.19
2022-11-25T21:24:37.416Z,101098.06
2022-11-25T21:27:14.080Z,101099.75
2022-11-25T21:29:43.575Z,101094.22
2022-11-25T21:32:27.854Z,101105.59
2022-11-25T21:34:56.008Z,101101.09
2022-11-25T21:37:33.857Z,101114.44
2022-11-25T21:40:01.327Z,101110.88
2022-11-25T21:42:29.869Z,101100.94
2022-11-25T21:44:57.053Z,101117.97
2022-11-25T21:47:28.439Z,101110.69
2022-11-25T21:49:55.905Z,101110.50
2022-11-25T21:52:25.064Z,101100.44
2022-11-25T21:54:52.121Z,101102.97
2022-11-25T21:57:27.472Z,101110.28
2022-11-25T21:59:54.817Z,101092.31
2022-11-25T22:02:24.622Z,101091.22
2022-11-25T22:04:52.581Z,101095.78
2022-11-25T22:07:19.704Z,101081.34
2022-11-25T22:09:46.946Z,101084.72
2022-11-25T22:12:30.267Z,101092.66
2022-11-25T22:14:58.841Z,101080.94
2022-11-25T22:17:26.237Z,101069.00
2022-11-25T22:19:53.591Z,101080.09
2022-11-25T22:22:20.755Z,101094.28
2022-11-25T22:24:47.965Z,101092.22
2022-11-25T22:27:23.668Z,101095.47
2022-11-25T22:29:52.027Z,101078.22
2022-11-25T22:32:19.445Z,101094.72
2022-11-25T22:34:47.402Z,101108.81
2022-11-25T22:37:23.334Z,101104.13
2022-11-25T22:39:50.775Z,101111.91
2022-11-25T22:42:27.960Z,101111.91
2022-11-25T22:44:56.639Z,101120.53
2022-11-25T22:47:33.133Z,101109.09
2022-11-25T22:50:03.769Z,101117.53
2022-11-25T22:52:35.188Z,101131.75
2022-11-25T22:55:19.050Z,101141.41
2022-11-25T22:57:46.982Z,101152.16
2022-11-25T23:00:22.571Z,101129.94
2022-11-25T23:02:51.741Z,101143.47
2022-11-25T23:05:32.214Z,101144.91
2022-11-25T23:08:31.822Z,101136.34
2022-11-25T23:10:59.298Z,101138.91
2022-11-25T23:13:26.517Z,101150.06
2022-11-25T23:16:01.434Z,101158.00
2022-11-25T23:18:39.006Z,101169.63
2022-11-25T23:21:10.057Z,101147.16
2022-11-25T23:23:37.520Z,101162.88
2022-11-25T23:26:06.833Z,101157.13
2022-11-25T23:28:33.877Z,101187.72
2022-11-25T23:31:01.983Z,101192.91
2022-11-25T23:33:37.131Z,101209.31
2022-11-25T23:36:15.664Z,101212.53
2022-11-25T23:38:46.829Z,101204.47
2022-11-25T23:41:34.791Z,101210.56
2022-11-25T23:44:29.751Z,101174.91
2022-11-25T23:47:03.935Z,101215.16
2022-11-25T23:49:39.321Z,101226.22
2022-11-25T23:52:08.487Z,101238.00
2022-11-25T23:54:42.042Z,101216.75
2022-11-25T23:57:22.344Z,101235.75
2022-11-25T23:59:50.785Z,101208.66
